createdAt,value
2022-12-08T00:01:08.613Z,31.67
2022-12-08T00:05:19.845Z,26.75
2022-12-08T00:09:24.092Z,29.77
2022-12-08T00:13:16.722Z,30.02
2022-12-08T00:17:11.569Z,26.15
2022-12-08T00:21:04.622Z,29.02
2022-12-08T00:24:57.381Z,25.67
2022-12-08T00:28:50.135Z,23.85
2022-12-08T00:32:42.848Z,21.75
2022-12-08T00:36:35.591Z,25.70
2022-12-08T00:40:28.629Z,23.20
2022-12-08T00:44:21.239Z,20.02
2022-12-08T00:48:13.771Z,16.85
2022-12-08T00:52:06.455Z,17.85
2022-12-08T00:55:59.273Z,19.55
2022-12-08T00:59:51.691Z,21.27
2022-12-08T01:03:45.100Z,19.63
2022-12-08T01:07:37.947Z,18.70
2022-12-08T01:11:30.628Z,17.25
2022-12-08T01:15:23.397Z,17.70
2022-12-08T01:19:17.534Z,18.20
2022-12-08T01:23:10.129Z,18.55
2022-12-08T01:27:02.681Z,17.75
2022-12-08T01:30:55.307Z,19.40
2022-12-08T01:34:47.869Z,17.52
2022-12-08T01:38:40.425Z,18.73
2022-12-08T01:42:34.847Z,19.17
2022-12-08T01:46:29.328Z,18.58
2022-12-08T01:50:24.058Z,17.80
2022-12-08T01:54:17.241Z,16.58
2022-12-08T01:58:26.000Z,19.40
2022-12-08T02:02:18.650Z,17.13
2022-12-08T02:06:11.822Z,18.33
2022-12-08T02:10:05.751Z,19.83
2022-12-08T02:14:01.510Z,16.40
2022-12-08T02:18:31.651Z,19.55
2022-12-08T02:22:40.067Z,17.58
2022-12-08T02:26:38.587Z,16.33
2022-12-08T02:30:49.794Z,17.25
2022-12-08T02:34:57.722Z,17.83
2022-12-08T02:38:59.058Z,16.15
2022-12-08T02:43:03.836Z,18.05
2022-12-08T02:47:09.011Z,16.00
2022-12-08T02:51:01.581Z,14.95
2022-12-08T02:54:58.988Z,19.58
2022-12-08T02:59:13.147Z,15.85
2022-12-08T03:03:36.327Z,17.00
2022-12-08T03:07:38.999Z,15.07
2022-12-08T03:11:38.616Z,16.13
2022-12-08T03:15:32.258Z,18.95
2022-12-08T03:19:28.819Z,16.23
2022-12-08T03:23:22.986Z,15.02
2022-12-08T03:27:22.071Z,15.25
2022-12-08T03:31:17.977Z,17.90
2022-12-08T03:35:14.539Z,18.33
2022-12-08T03:39:07.129Z,19.73
2022-12-08T03:43:00.221Z,18.85
2022-12-08T03:46:52.695Z,19.13
2022-12-08T03:50:45.119Z,20.50
2022-12-08T03:54:37.859Z,19.95
2022-12-08T03:58:35.798Z,21.40
2022-12-08T04:02:30.145Z,21.55
2022-12-08T04:06:23.063Z,18.90
2022-12-08T04:10:15.657Z,18.40
2022-12-08T04:14:08.461Z,17.73
2022-12-08T04:18:00.958Z,19.00
2022-12-08T04:21:53.904Z,18.58
2022-12-08T04:25:46.580Z,19.15
2022-12-08T04:29:39.398Z,20.33
2022-12-08T04:33:32.187Z,18.88
2022-12-08T04:37:24.744Z,20.42
2022-12-08T04:41:17.607Z,17.67
2022-12-08T04:45:10.520Z,19.33
2022-12-08T04:49:03.199Z,24.33
2022-12-08T04:52:55.929Z,23.25
2022-12-08T04:56:48.384Z,23.42
2022-12-08T05:00:42.059Z,20.70
2022-12-08T05:04:34.700Z,22.00
2022-12-08T05:08:27.599Z,21.45
2022-12-08T05:12:20.239Z,17.33
2022-12-08T05:16:15.443Z,19.67
2022-12-08T05:20:08.808Z,19.02
2022-12-08T05:24:01.624Z,20.55
2022-12-08T05:28:06.124Z,19.35
2022-12-08T05:32:04.561Z,17.38
2022-12-08T05:35:57.262Z,23.48
2022-12-08T05:39:49.910Z,19.35
2022-12-08T05:43:42.581Z,20.02
2022-12-08T05:47:36.298Z,20.15
2022-12-08T05:51:29.526Z,22.20
2022-12-08T05:55:22.396Z,22.33
2022-12-08T05:59:15.122Z,24.08
2022-12-08T06:03:07.786Z,19.55
2022-12-08T06:07:00.561Z,21.63
2022-12-08T06:10:53.136Z,20.67
2022-12-08T06:14:46.137Z,23.83
2022-12-08T06:18:38.780Z,19.27
2022-12-08T06:22:31.548Z,21.95
2022-12-08T06:26:24.620Z,23.40
2022-12-08T06:30:18.357Z,25.05
2022-12-08T06:34:11.066Z,24.35
2022-12-08T06:38:03.692Z,31.45
2022-12-08T06:42:15.259Z,23.80
2022-12-08T06:46:10.823Z,20.65
2022-12-08T06:50:04.627Z,21.42
2022-12-08T06:53:57.430Z,19.92
2022-12-08T06:57:52.248Z,22.38
2022-12-08T07:01:47.351Z,24.55
2022-12-08T07:05:40.352Z,23.02
2022-12-08T07:09:33.057Z,26.05
2022-12-08T07:13:25.702Z,25.60
2022-12-08T07:17:18.417Z,27.85
2022-12-08T07:21:13.342Z,27.88
2022-12-08T07:25:06.427Z,28.02
2022-12-08T07:29:00.676Z,28.20
2022-12-08T07:32:53.526Z,26.80
2022-12-08T07:36:46.146Z,26.65
2022-12-08T07:40:39.420Z,23.90
2022-12-08T07:44:32.105Z,26.35
2022-12-08T07:48:24.837Z,27.83
2022-12-08T07:52:17.354Z,30.60
2022-12-08T07:56:11.520Z,27.77
2022-12-08T08:00:06.200Z,27.02
2022-12-08T08:04:04.955Z,28.65
2022-12-08T08:07:57.698Z,29.05
2022-12-08T08:12:14.298Z,31.50
2022-12-08T08:16:07.859Z,28.50
2022-12-08T08:23:53.464Z,25.05
2022-12-08T08:27:46.879Z,25.20
2022-12-08T08:31:39.603Z,27.65
2022-12-08T08:35:32.364Z,24.60
2022-12-08T08:39:24.847Z,26.88
2022-12-08T08:43:34.286Z,26.85
2022-12-08T08:47:30.443Z,25.00
2022-12-08T08:51:23.195Z,33.65
2022-12-08T08:55:16.573Z,26.50
2022-12-08T08:59:10.220Z,28.15
2022-12-08T09:03:03.286Z,24.83
2022-12-08T09:06:55.988Z,30.45
2022-12-08T09:10:48.704Z,27.58
2022-12-08T09:14:41.957Z,26.88
2022-12-08T09:18:35.464Z,28.85
2022-12-08T09:22:27.932Z,26.77
2022-12-08T09:26:23.800Z,25.88
2022-12-08T09:30:17.037Z,25.55
2022-12-08T09:34:11.902Z,29.40
2022-12-08T09:38:04.611Z,49.22
2022-12-08T09:42:03.222Z,28.23
2022-12-08T09:45:56.525Z,26.98
2022-12-08T09:50:00.083Z,30.15
2022-12-08T09:53:58.489Z,26.10
2022-12-08T09:58:00.432Z,26.83
2022-12-08T10:01:53.257Z,31.42
2022-12-08T10:05:54.766Z,30.50
2022-12-08T10:10:11.643Z,29.88
2022-12-08T10:14:15.019Z,27.20
2022-12-08T10:18:15.580Z,27.25
2022-12-08T10:22:19.426Z,27.58
2022-12-08T10:26:18.143Z,31.95
2022-12-08T10:30:16.995Z,29.00
2022-12-08T10:34:27.553Z,31.17
2022-12-08T10:38:29.474Z,26.13
2022-12-08T10:42:22.749Z,27.08
2022-12-08T10:46:26.027Z,25.38
2022-12-08T10:50:24.010Z,30.83
2022-12-08T10:54:34.367Z,22.42
2022-12-08T10:58:29.712Z,21.77
2022-12-08T11:02:23.150Z,19.08
2022-12-08T11:06:29.497Z,21.15
2022-12-08T11:10:32.506Z,21.42
2022-12-08T11:14:30.940Z,23.17
2022-12-08T11:18:39.550Z,21.67
2022-12-08T11:22:35.510Z,22.17
2022-12-08T11:26:35.495Z,21.73
2022-12-08T11:30:34.539Z,19.35
2022-12-08T11:34:29.877Z,25.27
2022-12-08T11:38:24.794Z,22.95
2022-12-08T11:42:22.781Z,23.58
2022-12-08T11:46:23.833Z,22.27
2022-12-08T11:50:48.569Z,19.60
2022-12-08T11:55:26.135Z,24.10
2022-12-08T11:59:21.535Z,22.60
2022-12-08T12:03:36.733Z,22.20
2022-12-08T12:07:52.049Z,19.88
2022-12-08T12:12:16.940Z,20.55
2022-12-08T12:16:32.505Z,21.30
2022-12-08T12:20:30.959Z,17.60
2022-12-08T12:24:35.554Z,20.90
2022-12-08T12:28:40.342Z,19.25
2022-12-08T12:32:52.269Z,21.05
2022-12-08T12:36:52.640Z,18.50
2022-12-08T12:40:45.316Z,18.65
2022-12-08T12:44:40.128Z,19.20
2022-12-08T12:48:32.975Z,21.85
2022-12-08T12:52:31.563Z,19.67
2022-12-08T12:56:47.362Z,18.65
2022-12-08T13:00:40.131Z,21.35
2022-12-08T13:04:37.755Z,20.75
2022-12-08T13:08:31.707Z,18.50
2022-12-08T13:12:25.481Z,25.77
2022-12-08T13:16:24.374Z,21.40
2022-12-08T13:20:23.928Z,21.40
2022-12-08T13:24:25.978Z,22.15
2022-12-08T13:28:23.341Z,18.15
2022-12-08T13:33:09.419Z,20.50
2022-12-08T13:37:16.209Z,18.20
2022-12-08T13:41:19.149Z,18.17
2022-12-08T13:45:27.874Z,17.85
2022-12-08T13:55:00.676Z,17.95
2022-12-08T13:58:31.679Z,17.73
2022-12-08T14:02:33.315Z,17.02
2022-12-08T14:06:35.114Z,15.95
2022-12-08T14:10:32.315Z,17.70
2022-12-08T14:14:54.293Z,15.18
2022-12-08T14:22:39.067Z,12.80
2022-12-08T14:26:35.580Z,13.13
2022-12-08T14:30:30.853Z,12.80
2022-12-08T14:34:23.569Z,11.00
2022-12-08T14:38:18.228Z,11.95
2022-12-08T14:42:28.692Z,13.05
2022-12-08T14:46:23.230Z,13.07
2022-12-08T14:50:39.955Z,10.63
2022-12-08T14:54:32.510Z,12.57
2022-12-08T14:58:29.762Z,13.02
2022-12-08T15:02:31.662Z,15.65
2022-12-08T15:06:24.447Z,14.23
2022-12-08T15:10:17.070Z,15.00
2022-12-08T15:14:28.986Z,17.50
2022-12-08T15:18:36.884Z,13.95
2022-12-08T15:22:31.543Z,15.57
2022-12-08T15:26:28.416Z,13.98
2022-12-08T15:30:21.034Z,14.77
2022-12-08T15:34:13.712Z,13.73
2022-12-08T15:38:07.201Z,16.55
2022-12-08T15:42:00.439Z,16.02
2022-12-08T15:45:59.566Z,14.63
2022-12-08T15:49:53.334Z,15.05
2022-12-08T15:53:45.848Z,16.08
2022-12-08T15:58:45.034Z,18.20
2022-12-08T16:01:52.796Z,18.27
2022-12-08T16:06:01.719Z,20.50
2022-12-08T16:09:59.063Z,23.85
2022-12-08T16:14:15.578Z,17.75
2022-12-08T16:18:05.404Z,20.55
2022-12-08T16:22:45.010Z,23.60
2022-12-08T16:26:35.645Z,16.95
2022-12-08T16:30:28.766Z,18.75
2022-12-08T16:34:21.394Z,14.90
2022-12-08T16:38:16.116Z,16.92
2022-12-08T16:42:33.621Z,16.73
2022-12-08T16:46:28.702Z,22.27
2022-12-08T16:50:25.061Z,20.58
2022-12-08T16:54:17.736Z,18.00
2022-12-08T16:58:10.800Z,15.45
2022-12-08T17:02:03.941Z,13.65
2022-12-08T17:05:56.982Z,10.82
2022-12-08T17:09:50.802Z,17.02
2022-12-08T17:13:43.472Z,24.55
2022-12-08T17:17:37.048Z,19.48
2022-12-08T17:21:30.041Z,18.15
2022-12-08T17:25:22.844Z,14.75
2022-12-08T17:29:15.627Z,18.50
2022-12-08T17:33:08.789Z,17.85
2022-12-08T17:37:01.841Z,17.30
2022-12-08T17:40:58.560Z,18.05
2022-12-08T17:44:51.508Z,22.30
2022-12-08T17:48:44.934Z,25.20
2022-12-08T17:52:37.712Z,23.90
2022-12-08T17:56:30.445Z,16.67
2022-12-08T18:00:23.507Z,15.95
2022-12-08T18:04:16.065Z,16.50
2022-12-08T18:08:13.089Z,15.05
2022-12-08T18:12:07.894Z,18.65
2022-12-08T18:16:00.857Z,18.20
2022-12-08T18:19:54.214Z,15.93
2022-12-08T18:23:49.623Z,16.33
2022-12-08T18:27:44.202Z,18.73
2022-12-08T18:31:37.224Z,17.58
2022-12-08T18:35:30.327Z,18.25
2022-12-08T18:39:29.449Z,18.25
2022-12-08T18:43:23.779Z,15.35
2022-12-08T18:47:16.726Z,16.23
2022-12-08T18:51:20.861Z,16.48
2022-12-08T18:55:14.552Z,15.40
2022-12-08T18:59:11.455Z,14.65
2022-12-08T19:03:04.572Z,20.48
2022-12-08T19:06:58.762Z,17.75
2022-12-08T19:10:52.278Z,19.33
2022-12-08T19:14:45.658Z,17.92
2022-12-08T19:18:39.626Z,16.77
2022-12-08T19:22:33.505Z,17.40
2022-12-08T19:26:29.885Z,17.38
2022-12-08T19:30:23.318Z,16.83
2022-12-08T19:34:16.974Z,19.15
2022-12-08T19:38:10.991Z,13.95
2022-12-08T19:42:31.032Z,14.18
2022-12-08T19:46:26.778Z,16.20
2022-12-08T19:50:42.190Z,15.70
2022-12-08T19:54:36.400Z,17.15
2022-12-08T19:58:30.125Z,18.90
2022-12-08T20:02:23.831Z,14.48
2022-12-08T20:06:18.864Z,18.92
2022-12-08T20:10:24.745Z,16.20
2022-12-08T20:14:19.445Z,18.73
2022-12-08T20:18:15.709Z,21.30
2022-12-08T20:22:10.346Z,22.80
2022-12-08T20:26:12.644Z,20.42
2022-12-08T20:30:16.505Z,18.33
2022-12-08T20:34:15.921Z,21.13
2022-12-08T20:38:08.913Z,20.48
2022-12-08T20:42:03.416Z,21.33
2022-12-08T20:45:56.459Z,21.83
2022-12-08T20:49:51.219Z,19.45
2022-12-08T20:53:44.782Z,21.17
2022-12-08T20:57:37.981Z,18.27
2022-12-08T21:01:31.577Z,17.60
2022-12-08T21:05:26.467Z,14.95
2022-12-08T21:09:19.327Z,16.88
2022-12-08T21:13:12.991Z,15.60
2022-12-08T21:17:05.737Z,18.58
2022-12-08T21:21:11.291Z,17.50
2022-12-08T21:25:04.155Z,17.40
2022-12-08T21:28:59.047Z,16.23
2022-12-08T21:32:52.222Z,14.68
2022-12-08T21:36:44.903Z,17.25
2022-12-08T21:40:37.704Z,15.88
2022-12-08T21:44:30.433Z,15.02
2022-12-08T21:48:22.961Z,14.77
2022-12-08T21:52:15.713Z,16.83
2022-12-08T21:56:09.871Z,16.95
2022-12-08T22:00:03.339Z,15.93
2022-12-08T22:03:57.583Z,17.33
2022-12-08T22:07:50.480Z,18.30
2022-12-08T22:11:43.566Z,18.83
2022-12-08T22:15:36.369Z,16.25
2022-12-08T22:19:30.673Z,16.17
2022-12-08T22:23:24.276Z,19.33
2022-12-08T22:27:17.352Z,19.48
2022-12-08T22:31:11.373Z,20.48
2022-12-08T22:35:04.339Z,19.27
2022-12-08T22:38:57.152Z,18.67
2022-12-08T22:42:49.988Z,19.85
2022-12-08T22:46:42.871Z,20.10
2022-12-08T22:50:35.659Z,17.88
2022-12-08T22:54:34.582Z,20.00
2022-12-08T22:58:29.014Z,18.60
2022-12-08T23:02:21.927Z,20.27
2022-12-08T23:06:14.769Z,19.17
2022-12-08T23:10:10.480Z,19.38
2022-12-08T23:14:03.846Z,20.88
2022-12-08T23:17:56.756Z,19.02
2022-12-08T23:21:49.395Z,20.17
2022-12-08T23:25:43.044Z,20.77
2022-12-08T23:29:35.709Z,20.95
2022-12-08T23:33:28.182Z,24.73
2022-12-08T23:37:20.880Z,21.00
2022-12-08T23:41:15.508Z,20.30
2022-12-08T23:45:08.954Z,20.15
2022-12-08T23:49:01.902Z,19.98
2022-12-08T23:52:54.399Z,22.60
2022-12-08T23:56:47.219Z,21.60
